ENGM/OSL METAR and TAF weather

Enter ICAO airport designator
Station Type Date Time Source
ENGM METAR 2021/09/16 22:20 UTC NOAA

ENGM 162220Z 02006KT 9999 BKN043 09/05 Q1019


Station Type Date Time Source
ENGM Decoded METAR 2021/09/16 22:20 UTC NOAA

Oslo / Gardermoen, Norway (ENGM) 60-12N 011-05E 204M
Sep 16, 2021 - 06:20 PM EDT / 2021.09.16 2220 UTC
Wind: from the NNE (020 degrees) at 7 MPH (6 KT):0
Visibility: greater than 7 mile(s):0
Sky conditions: mostly cloudy
Temperature: 48 F (9 C)
Dew Point: 41 F (5 C)
Relative Humidity: 75%
Pressure (altimeter): 30.09 in. Hg (1019 hPa)
ob: ENGM 162220Z 02006KT 9999 BKN043 09/05 Q1019
cycle: 22

Station Type Date Time Source
ENGM TAF 2021/09/16 18:57 UTC NOAA

TAF ENGM 161700Z 1618/1718 02008KT 9999 SCT030 BKN080

Example: see airport list